首页
METAR-TAF:

METAR-TAF

机场 :

Mitiga International Airport

的黎波里, 利比亚

纬度: 32-54N, 经度: 13-17E, 海拔: 11米

当前天气观测

该预报发布于1小时和16分钟前的22:50 UTC
风速5节,风向北转东北
温度 22°C
湿度 78%
气压 1016 hPa
能見度: 6000
多云层高于2000英尺

METAR: HLLM 192250Z 03005KT 6000 BKN020 22/18 Q1016

时间: 02:06 (00:06 UTC)

预报

该预报发布于7小时和6分钟前的17:00 UTC
预报有效从19日的 18点(UTC)到 20日的 18点(UTC)
风速10节,风向北转西北
能見度: 8000
散云层高于3000英尺
成为
从 19日的 21点(UTC)到 19日的 23点(UTC)
风速2节,风向多变
几率 30%
从 20日的 00点(UTC)到 20日的 06点(UTC)
能見度: 5000
轻雾
成为
从 20日的 08点(UTC)到 20日的 10点(UTC)
风速10节,风向北转东北

TAF: HLLM 191700Z 1918/2018 33010KT 8000 SCT030 BECMG 1921/1923 VRB02KT PROB30TEMPO 2000/2006 5000 BR NSC BECMG 2008/2010 03010KT

超过4000个机场的气象观测和天气预报(METAR&TAF报告)。

可查询的气象台以黄色和红色小点在地图上表示。

将鼠标移到小点上方,可查看气象台名称。

然后点击查看天气观测和预报。

如需切换地图:点击带黑十字的绿色按钮放大地图;点击带横线的绿色按钮缩小地图;或者点击绿色箭头查看邻近地区的地图。


METAR-TAF: